createdAt,value
2023-04-08T00:00:10.832Z,85.04
2023-04-08T00:02:38.105Z,84.83
2023-04-08T00:05:06.473Z,85.64
2023-04-08T00:07:33.859Z,85.19
2023-04-08T00:10:01.224Z,85.38
2023-04-08T00:12:28.508Z,86.28
2023-04-08T00:14:55.526Z,85.89
2023-04-08T00:17:22.751Z,85.27
2023-04-08T00:19:49.833Z,85.59
2023-04-08T00:22:17.771Z,85.43
2023-04-08T00:24:44.923Z,86.28
2023-04-08T00:27:11.918Z,86.95
2023-04-08T00:29:39.072Z,86.83
2023-04-08T00:32:06.514Z,88.15
2023-04-08T00:34:33.474Z,88.98
2023-04-08T00:37:01.289Z,89.89
2023-04-08T00:39:28.109Z,90.49
2023-04-08T00:41:55.135Z,90.00
2023-04-08T00:44:22.292Z,89.10
2023-04-08T00:46:49.626Z,89.33
2023-04-08T00:49:17.646Z,88.62
2023-04-08T00:51:44.858Z,88.96
2023-04-08T00:54:12.135Z,89.12
2023-04-08T00:56:39.695Z,89.20
2023-04-08T00:59:07.180Z,88.30
2023-04-08T01:01:51.620Z,88.76
2023-04-08T01:04:27.702Z,89.10
2023-04-08T01:07:13.485Z,88.49
2023-04-08T01:09:49.749Z,88.27
2023-04-08T01:12:22.957Z,88.06
2023-04-08T01:14:56.236Z,89.58
2023-04-08T01:17:23.896Z,89.16
2023-04-08T01:19:52.262Z,89.38
2023-04-08T01:22:44.361Z,89.31
2023-04-08T01:25:39.241Z,89.51
2023-04-08T01:28:10.320Z,89.78
2023-04-08T01:30:40.763Z,90.15
2023-04-08T01:33:08.394Z,91.29
2023-04-08T01:35:36.322Z,92.04
2023-04-08T01:38:04.042Z,92.58
2023-04-08T01:40:32.489Z,91.81
2023-04-08T01:43:01.260Z,92.83
2023-04-08T01:45:28.981Z,92.71
2023-04-08T01:47:58.831Z,93.59
2023-04-08T01:50:26.854Z,94.14
2023-04-08T01:52:56.437Z,94.85
2023-04-08T01:55:24.948Z,94.68
2023-04-08T01:57:53.422Z,94.77
2023-04-08T02:00:25.885Z,95.64
2023-04-08T02:02:54.961Z,95.23
2023-04-08T02:05:22.241Z,96.24
2023-04-08T02:07:49.441Z,95.95
2023-04-08T02:10:16.534Z,96.04
2023-04-08T02:12:44.852Z,96.36
2023-04-08T02:15:13.459Z,97.39
2023-04-08T02:17:51.234Z,97.66
2023-04-08T02:20:35.149Z,96.82
2023-04-08T02:23:19.699Z,96.93
2023-04-08T02:25:48.506Z,96.61
2023-04-08T02:28:18.064Z,96.29
2023-04-08T02:30:51.165Z,96.16
2023-04-08T02:33:23.343Z,95.93
2023-04-08T02:35:55.306Z,96.70
2023-04-08T02:38:24.457Z,97.64
2023-04-08T02:40:51.951Z,98.36
2023-04-08T02:43:19.031Z,98.45
2023-04-08T02:45:46.709Z,98.59
2023-04-08T02:48:15.576Z,98.69
2023-04-08T02:50:42.505Z,98.85
2023-04-08T02:53:10.105Z,98.78
2023-04-08T02:55:39.671Z,98.33
2023-04-08T02:58:06.998Z,98.11
2023-04-08T03:00:34.233Z,98.54
2023-04-08T03:03:02.146Z,98.16
2023-04-08T03:05:29.567Z,98.21
2023-04-08T03:07:56.411Z,97.88
2023-04-08T03:10:23.598Z,97.51
2023-04-08T03:12:51.126Z,97.48
2023-04-08T03:15:18.086Z,97.90
2023-04-08T03:17:45.549Z,98.40
2023-04-08T03:20:12.582Z,98.39
2023-04-08T03:22:39.736Z,97.41
2023-04-08T03:25:07.450Z,97.02
2023-04-08T03:27:35.009Z,97.10
2023-04-08T03:30:02.845Z,97.31
2023-04-08T03:32:30.379Z,97.55
2023-04-08T03:34:58.088Z,97.42
2023-04-08T03:37:25.831Z,97.43
2023-04-08T03:39:55.779Z,98.41
2023-04-08T03:42:23.528Z,98.38
2023-04-08T03:44:52.184Z,97.94
2023-04-08T03:47:20.137Z,98.16
2023-04-08T03:49:47.906Z,97.88
2023-04-08T03:52:15.466Z,99.26
2023-04-08T03:54:43.110Z,99.56
2023-04-08T03:57:12.375Z,100.00
2023-04-08T03:59:41.144Z,99.75
2023-04-08T04:02:08.866Z,100.00
2023-04-08T04:04:37.224Z,100.00
2023-04-08T04:07:04.397Z,100.00
2023-04-08T04:09:31.789Z,100.00
2023-04-08T04:11:59.422Z,100.00
2023-04-08T04:14:26.465Z,100.00
2023-04-08T04:16:54.364Z,100.00
2023-04-08T04:19:21.382Z,100.00
2023-04-08T04:21:48.629Z,100.00
2023-04-08T04:24:15.992Z,100.00
2023-04-08T04:26:43.601Z,100.00
2023-04-08T04:29:10.853Z,100.00
2023-04-08T04:31:38.546Z,100.00
2023-04-08T04:34:06.133Z,100.00
2023-04-08T04:36:33.980Z,100.00
2023-04-08T04:39:01.222Z,100.00
2023-04-08T04:41:28.200Z,100.00
2023-04-08T04:43:55.603Z,100.00
2023-04-08T04:46:23.038Z,100.00
2023-04-08T04:48:50.117Z,100.00
2023-04-08T04:51:17.536Z,100.00
2023-04-08T04:53:44.656Z,100.00
2023-04-08T04:56:11.861Z,100.00
2023-04-08T04:58:39.624Z,100.00
2023-04-08T05:01:06.704Z,100.00
2023-04-08T05:03:34.181Z,100.00
2023-04-08T05:06:02.076Z,100.00
2023-04-08T05:08:29.161Z,100.00
2023-04-08T05:10:57.093Z,100.00
2023-04-08T05:13:24.303Z,100.00
2023-04-08T05:15:51.700Z,100.00
2023-04-08T05:18:19.086Z,100.00
2023-04-08T05:20:47.041Z,100.00
2023-04-08T05:23:14.094Z,100.00
2023-04-08T05:25:42.055Z,100.00
2023-04-08T05:28:09.476Z,99.85
2023-04-08T05:30:36.667Z,99.42
2023-04-08T05:33:04.176Z,98.56
2023-04-08T05:35:32.017Z,97.56
2023-04-08T05:37:59.632Z,96.90
2023-04-08T05:40:27.308Z,95.10
2023-04-08T05:42:54.615Z,92.54
2023-04-08T05:45:21.762Z,90.93
2023-04-08T05:47:48.580Z,89.53
2023-04-08T05:50:15.936Z,87.91
2023-04-08T05:52:46.480Z,88.23
2023-04-08T05:55:14.954Z,86.94
2023-04-08T05:57:42.290Z,85.30
2023-04-08T06:00:11.621Z,83.16
2023-04-08T06:02:39.116Z,80.51
2023-04-08T06:05:06.773Z,79.19
2023-04-08T06:07:34.936Z,79.27
2023-04-08T06:10:02.691Z,79.00
2023-04-08T06:12:30.129Z,82.07
2023-04-08T06:14:57.276Z,84.15
2023-04-08T06:17:24.750Z,85.13
2023-04-08T06:19:52.041Z,88.12
2023-04-08T06:22:19.312Z,89.16
2023-04-08T06:24:48.410Z,89.05
2023-04-08T06:27:16.241Z,88.18
2023-04-08T06:29:43.670Z,87.99
2023-04-08T06:32:11.530Z,87.61
2023-04-08T06:34:39.642Z,86.96
2023-04-08T06:37:07.341Z,87.17
2023-04-08T06:39:34.683Z,86.59
2023-04-08T06:42:02.127Z,86.52
2023-04-08T06:44:44.645Z,86.17
2023-04-08T06:47:12.094Z,82.21
2023-04-08T06:49:42.389Z,80.30
2023-04-08T06:52:09.656Z,81.19
2023-04-08T06:54:37.755Z,79.68
2023-04-08T06:57:04.839Z,76.44
2023-04-08T06:59:32.363Z,76.94
2023-04-08T07:02:00.696Z,76.60
2023-04-08T07:04:28.374Z,76.30
2023-04-08T07:06:56.024Z,75.57
2023-04-08T07:09:23.356Z,73.48
2023-04-08T07:11:51.372Z,71.44
2023-04-08T07:14:19.770Z,70.74
2023-04-08T07:16:46.796Z,65.92
2023-04-08T07:19:14.287Z,65.32
2023-04-08T07:21:42.386Z,64.86
2023-04-08T07:24:10.085Z,63.38
2023-04-08T07:26:38.894Z,62.28
2023-04-08T07:29:05.764Z,59.06
2023-04-08T07:31:33.134Z,58.02
2023-04-08T07:34:00.380Z,58.56
2023-04-08T07:36:28.227Z,57.62
2023-04-08T07:38:55.922Z,57.91
2023-04-08T07:41:23.533Z,54.86
2023-04-08T07:43:50.880Z,56.08
2023-04-08T07:46:17.981Z,54.95
2023-04-08T07:48:45.588Z,52.54
2023-04-08T07:51:12.694Z,53.14
2023-04-08T07:53:40.718Z,51.07
2023-04-08T07:56:13.205Z,51.97
2023-04-08T07:58:43.664Z,51.01
2023-04-08T08:01:22.743Z,50.45
2023-04-08T08:03:51.662Z,51.22
2023-04-08T08:06:19.668Z,50.58
2023-04-08T08:08:47.080Z,48.20
2023-04-08T08:11:14.350Z,46.77
2023-04-08T08:13:41.396Z,45.88
2023-04-08T08:16:12.104Z,47.34
2023-04-08T08:18:41.693Z,44.79
2023-04-08T08:21:10.123Z,43.22
2023-04-08T08:23:38.014Z,42.03
2023-04-08T08:26:07.829Z,41.15
2023-04-08T08:28:35.715Z,43.17
2023-04-08T08:31:03.670Z,42.37
2023-04-08T08:33:30.630Z,41.85
2023-04-08T08:35:58.435Z,40.26
2023-04-08T08:38:26.310Z,39.40
2023-04-08T08:41:00.887Z,40.29
2023-04-08T08:43:30.059Z,40.68
2023-04-08T08:45:57.644Z,39.60
2023-04-08T08:48:25.970Z,39.61
2023-04-08T08:50:53.225Z,39.54
2023-04-08T08:53:21.078Z,36.58
2023-04-08T08:58:19.280Z,36.05
2023-04-08T09:00:47.055Z,36.20
2023-04-08T09:03:16.298Z,32.52
2023-04-08T09:05:54.164Z,34.47
2023-04-08T09:08:32.716Z,35.45
2023-04-08T09:11:13.999Z,33.43
2023-04-08T09:13:41.466Z,33.75
2023-04-08T09:16:11.265Z,33.97
2023-04-08T09:18:39.494Z,34.91
2023-04-08T09:21:07.285Z,35.95
2023-04-08T09:23:48.970Z,37.43
2023-04-08T09:26:24.498Z,37.11
2023-04-08T09:29:18.375Z,38.45
2023-04-08T09:32:00.333Z,38.73
2023-04-08T09:34:29.049Z,36.67
2023-04-08T09:36:56.770Z,33.83
2023-04-08T09:39:24.331Z,32.69
2023-04-08T09:41:53.394Z,30.58
2023-04-08T09:44:22.230Z,31.19
2023-04-08T09:47:20.062Z,30.53
2023-04-08T09:49:51.898Z,27.52
2023-04-08T09:52:30.911Z,26.17
2023-04-08T09:55:06.980Z,27.48
2023-04-08T09:57:55.213Z,26.08
2023-04-08T10:00:35.466Z,25.84
2023-04-08T10:03:21.382Z,25.58
2023-04-08T10:05:50.216Z,26.56
2023-04-08T10:08:17.968Z,26.65
2023-04-08T10:10:47.841Z,27.68
2023-04-08T10:13:16.014Z,28.34
2023-04-08T10:15:44.582Z,29.43
2023-04-08T10:18:11.912Z,29.36
2023-04-08T10:20:40.021Z,29.55
2023-04-08T10:23:10.032Z,29.97
2023-04-08T10:25:45.469Z,30.89
2023-04-08T10:28:12.726Z,31.64
2023-04-08T10:30:41.716Z,32.37
2023-04-08T10:33:16.315Z,32.34
2023-04-08T10:35:53.878Z,33.12
2023-04-08T10:38:21.799Z,34.09
2023-04-08T10:40:50.721Z,34.27
2023-04-08T10:43:19.086Z,34.61
2023-04-08T10:45:48.570Z,35.29
2023-04-08T10:48:22.805Z,33.96
2023-04-08T10:50:57.697Z,33.04
2023-04-08T10:53:28.425Z,34.05
2023-04-08T10:56:08.837Z,32.06
2023-04-08T10:58:37.838Z,32.81
2023-04-08T11:01:07.619Z,33.12
2023-04-08T11:03:37.648Z,32.01
2023-04-08T11:06:05.650Z,32.51
2023-04-08T11:08:34.012Z,31.15
2023-04-08T11:11:02.514Z,29.37
2023-04-08T11:13:30.013Z,29.77
2023-04-08T11:15:59.935Z,28.56
2023-04-08T11:18:29.984Z,28.43
2023-04-08T11:21:00.176Z,27.96
2023-04-08T11:23:28.094Z,28.39
2023-04-08T11:25:55.921Z,28.08
2023-04-08T11:28:26.693Z,28.18
2023-04-08T11:30:55.859Z,29.73
2023-04-08T11:33:26.916Z,31.57
2023-04-08T11:35:54.917Z,33.65
2023-04-08T11:38:25.227Z,35.55
2023-04-08T11:40:59.214Z,40.55
2023-04-08T11:43:27.215Z,43.59
2023-04-08T11:45:54.772Z,43.39
2023-04-08T11:48:21.906Z,43.05
2023-04-08T11:51:02.412Z,42.72
2023-04-08T11:53:30.123Z,42.61
2023-04-08T11:55:57.981Z,41.22
2023-04-08T11:58:25.229Z,40.50
2023-04-08T12:00:52.582Z,37.83
2023-04-08T12:03:20.040Z,36.24
2023-04-08T12:05:47.187Z,37.49
2023-04-08T12:08:14.575Z,36.90
2023-04-08T12:10:41.984Z,36.55
2023-04-08T12:13:09.772Z,35.09
2023-04-08T12:15:38.376Z,35.46
2023-04-08T12:18:06.637Z,31.44
2023-04-08T12:20:37.524Z,31.28
2023-04-08T12:23:05.208Z,32.03
2023-04-08T12:25:32.749Z,35.18
2023-04-08T12:27:59.964Z,37.64
2023-04-08T12:30:27.163Z,43.46
2023-04-08T12:32:55.778Z,44.83
2023-04-08T12:35:23.812Z,48.90
2023-04-08T12:37:51.658Z,51.57
2023-04-08T12:40:19.776Z,56.23
2023-04-08T12:42:47.991Z,56.62
2023-04-08T12:45:14.920Z,65.04
2023-04-08T12:47:41.974Z,62.02
2023-04-08T12:50:10.810Z,60.69
2023-04-08T12:52:37.763Z,63.68
2023-04-08T12:55:05.752Z,62.65
2023-04-08T12:57:33.771Z,65.32
2023-04-08T13:00:01.764Z,65.18
2023-04-08T13:02:28.859Z,64.46
2023-04-08T13:04:56.641Z,63.27
2023-04-08T13:07:23.916Z,63.26
2023-04-08T13:09:51.583Z,62.49
2023-04-08T13:12:18.710Z,62.47
2023-04-08T13:14:46.936Z,62.17
2023-04-08T13:17:14.717Z,61.29
2023-04-08T13:19:42.546Z,60.88
2023-04-08T13:22:09.797Z,60.49
2023-04-08T13:24:37.638Z,59.65
2023-04-08T13:27:05.160Z,58.17
2023-04-08T13:29:32.016Z,56.31
2023-04-08T13:31:59.600Z,55.73
2023-04-08T13:34:26.633Z,56.73
2023-04-08T13:36:56.553Z,56.65
2023-04-08T13:39:23.856Z,58.71
2023-04-08T13:41:51.601Z,61.51
2023-04-08T13:44:18.819Z,64.11
2023-04-08T13:46:46.440Z,65.96
2023-04-08T13:49:15.915Z,66.64
2023-04-08T13:51:42.755Z,66.79
2023-04-08T13:54:09.966Z,68.34
2023-04-08T13:56:37.550Z,67.78
2023-04-08T13:59:04.898Z,69.58
2023-04-08T14:01:32.109Z,66.94
2023-04-08T14:03:59.798Z,67.35
2023-04-08T14:06:27.679Z,66.89
2023-04-08T14:08:55.574Z,67.58
2023-04-08T14:11:23.585Z,63.56
2023-04-08T14:13:51.595Z,65.04
2023-04-08T14:16:18.572Z,64.13
2023-04-08T14:18:46.089Z,64.96
2023-04-08T14:21:16.036Z,62.49
2023-04-08T14:23:43.259Z,63.47
2023-04-08T14:26:10.226Z,67.83
2023-04-08T14:28:37.004Z,63.46
2023-04-08T14:31:05.000Z,64.58
2023-04-08T14:33:32.887Z,63.33
2023-04-08T14:36:00.368Z,64.86
2023-04-08T14:38:27.972Z,66.07
2023-04-08T14:40:55.076Z,66.07
2023-04-08T14:43:22.649Z,66.79
2023-04-08T14:45:51.854Z,67.42
2023-04-08T14:48:19.842Z,69.30
2023-04-08T14:50:47.087Z,68.77
2023-04-08T14:53:14.488Z,74.44
2023-04-08T14:55:41.821Z,77.40
2023-04-08T14:58:09.698Z,82.00
2023-04-08T15:00:37.856Z,85.18
2023-04-08T15:03:05.308Z,88.35
2023-04-08T15:05:35.545Z,88.23
2023-04-08T15:08:04.575Z,88.65
2023-04-08T15:10:32.400Z,89.34
2023-04-08T15:12:59.686Z,88.86
2023-04-08T15:15:27.850Z,91.51
2023-04-08T15:17:55.109Z,93.32
2023-04-08T15:20:22.474Z,94.44
2023-04-08T15:22:49.726Z,93.17
2023-04-08T15:25:16.909Z,93.42
2023-04-08T15:27:43.910Z,94.85
2023-04-08T15:30:12.460Z,95.09
2023-04-08T15:32:39.878Z,93.81
2023-04-08T15:35:07.727Z,93.98
2023-04-08T15:37:35.564Z,94.32
2023-04-08T15:40:02.912Z,95.49
2023-04-08T15:42:30.085Z,95.32
2023-04-08T15:44:57.252Z,96.02
2023-04-08T15:47:24.452Z,95.73
2023-04-08T15:49:52.883Z,95.58
2023-04-08T15:52:20.118Z,94.77
2023-04-08T15:54:47.330Z,95.15
2023-04-08T15:57:16.329Z,94.95
2023-04-08T15:59:43.707Z,94.98
2023-04-08T16:02:11.727Z,95.32
2023-04-08T16:04:39.380Z,95.03
2023-04-08T16:07:06.828Z,94.34
2023-04-08T16:09:33.986Z,93.78
2023-04-08T16:12:01.408Z,94.06
2023-04-08T16:14:30.460Z,94.76
2023-04-08T16:17:03.700Z,96.48
2023-04-08T16:19:31.569Z,96.91
2023-04-08T16:21:59.435Z,96.58
2023-04-08T16:24:26.887Z,96.24
2023-04-08T16:26:54.658Z,96.11
2023-04-08T16:29:23.249Z,95.68
2023-04-08T16:31:53.179Z,98.09
2023-04-08T16:34:21.845Z,100.00
2023-04-08T16:36:50.008Z,100.00
2023-04-08T16:39:16.844Z,100.00
2023-04-08T16:41:44.091Z,100.00
2023-04-08T16:44:11.298Z,100.00
2023-04-08T16:46:39.113Z,100.00
2023-04-08T16:49:06.806Z,100.00
2023-04-08T16:51:34.585Z,100.00
2023-04-08T16:54:02.015Z,100.00
2023-04-08T16:56:29.425Z,100.00
2023-04-08T16:58:56.556Z,100.00
2023-04-08T17:01:23.672Z,100.00
2023-04-08T17:03:52.574Z,100.00
2023-04-08T17:06:20.424Z,100.00
2023-04-08T17:08:47.799Z,100.00
2023-04-08T17:11:15.575Z,100.00
2023-04-08T17:13:44.069Z,100.00
2023-04-08T17:16:16.406Z,100.00
2023-04-08T17:18:44.887Z,100.00
2023-04-08T17:21:14.147Z,100.00
2023-04-08T17:23:41.561Z,100.00
2023-04-08T17:26:10.072Z,100.00
2023-04-08T17:28:37.048Z,100.00
2023-04-08T17:31:04.007Z,100.00
2023-04-08T17:33:31.508Z,100.00
2023-04-08T17:35:58.869Z,100.00
2023-04-08T17:38:25.991Z,100.00
2023-04-08T17:40:53.447Z,100.00
2023-04-08T17:43:20.602Z,100.00
2023-04-08T17:45:50.104Z,100.00
2023-04-08T17:48:18.832Z,100.00
2023-04-08T17:50:46.100Z,100.00
2023-04-08T17:53:13.182Z,100.00
2023-04-08T17:55:40.540Z,100.00
2023-04-08T17:58:07.901Z,100.00
2023-04-08T18:00:34.917Z,100.00
2023-04-08T18:03:02.047Z,100.00
2023-04-08T18:05:30.187Z,100.00
2023-04-08T18:07:58.429Z,100.00
2023-04-08T18:10:25.846Z,100.00
2023-04-08T18:13:00.591Z,100.00
2023-04-08T18:15:37.735Z,100.00
2023-04-08T18:18:04.579Z,100.00
2023-04-08T18:20:36.292Z,100.00
2023-04-08T18:23:06.674Z,100.00
2023-04-08T18:25:34.803Z,100.00
2023-04-08T18:28:02.068Z,100.00
2023-04-08T18:30:30.472Z,100.00
2023-04-08T18:32:57.860Z,100.00
2023-04-08T18:35:26.002Z,100.00
2023-04-08T18:37:53.003Z,100.00
2023-04-08T18:40:20.407Z,100.00
2023-04-08T18:42:47.492Z,100.00
2023-04-08T18:45:14.852Z,100.00
2023-04-08T18:47:42.147Z,100.00
2023-04-08T18:50:09.796Z,100.00
2023-04-08T18:52:37.612Z,100.00
2023-04-08T18:55:05.580Z,100.00
2023-04-08T18:57:33.432Z,100.00
2023-04-08T19:00:00.777Z,100.00
2023-04-08T19:02:27.939Z,100.00
2023-04-08T19:04:55.877Z,100.00
2023-04-08T19:07:23.777Z,100.00
2023-04-08T19:09:51.126Z,100.00
2023-04-08T19:12:18.048Z,100.00
2023-04-08T19:14:45.457Z,100.00
2023-04-08T19:17:12.622Z,100.00
2023-04-08T19:19:39.727Z,100.00
2023-04-08T19:22:07.403Z,100.00
2023-04-08T19:24:34.718Z,100.00
2023-04-08T19:27:01.625Z,100.00
2023-04-08T19:29:31.260Z,100.00
2023-04-08T19:31:59.580Z,100.00
2023-04-08T19:34:27.011Z,100.00
2023-04-08T19:36:53.907Z,100.00
2023-04-08T19:39:21.622Z,100.00
2023-04-08T19:41:49.259Z,100.00
2023-04-08T19:44:16.729Z,100.00
2023-04-08T19:46:44.122Z,100.00
2023-04-08T19:49:11.659Z,100.00
2023-04-08T19:51:38.766Z,100.00
2023-04-08T19:54:05.693Z,100.00
2023-04-08T19:56:34.116Z,100.00
2023-04-08T19:59:02.168Z,100.00
2023-04-08T20:01:29.640Z,100.00
2023-04-08T20:03:57.233Z,100.00
2023-04-08T20:06:24.462Z,100.00
2023-04-08T20:08:53.495Z,100.00
2023-04-08T20:11:21.514Z,100.00
2023-04-08T20:13:50.083Z,100.00
2023-04-08T20:16:17.729Z,100.00
2023-04-08T20:18:45.142Z,100.00
2023-04-08T20:21:14.305Z,100.00
2023-04-08T20:23:44.531Z,100.00
2023-04-08T20:26:13.388Z,100.00
2023-04-08T20:28:40.972Z,100.00
2023-04-08T20:31:09.681Z,100.00
2023-04-08T20:33:43.712Z,100.00
2023-04-08T20:36:12.574Z,100.00
2023-04-08T20:38:40.928Z,100.00
2023-04-08T20:41:08.211Z,100.00
2023-04-08T20:43:35.104Z,100.00
2023-04-08T20:46:02.429Z,100.00
2023-04-08T20:48:29.719Z,100.00
2023-04-08T20:50:57.822Z,100.00
2023-04-08T20:53:26.505Z,100.00
2023-04-08T20:55:53.448Z,100.00
2023-04-08T20:58:20.775Z,100.00
2023-04-08T21:00:48.083Z,100.00
2023-04-08T21:03:15.543Z,100.00
2023-04-08T21:05:43.271Z,100.00
2023-04-08T21:08:10.508Z,100.00
2023-04-08T21:10:37.864Z,100.00
2023-04-08T21:13:05.093Z,100.00
2023-04-08T21:15:32.251Z,100.00
2023-04-08T21:17:59.585Z,100.00
2023-04-08T21:20:26.985Z,100.00
2023-04-08T21:22:54.153Z,100.00
2023-04-08T21:25:21.630Z,100.00
2023-04-08T21:27:48.547Z,100.00
2023-04-08T21:30:16.896Z,100.00
2023-04-08T21:32:44.255Z,100.00
2023-04-08T21:35:11.535Z,100.00
2023-04-08T21:37:38.657Z,100.00
2023-04-08T21:40:06.185Z,100.00
2023-04-08T21:42:33.332Z,100.00
2023-04-08T21:45:00.461Z,100.00
2023-04-08T21:47:27.601Z,100.00
2023-04-08T21:49:56.011Z,100.00
2023-04-08T21:52:23.071Z,100.00
2023-04-08T21:54:51.707Z,100.00
2023-04-08T21:57:18.915Z,100.00
2023-04-08T21:59:45.805Z,100.00
2023-04-08T22:02:13.527Z,100.00
2023-04-08T22:04:40.931Z,100.00
2023-04-08T22:07:08.441Z,100.00
2023-04-08T22:09:35.740Z,100.00
2023-04-08T22:12:03.400Z,100.00
2023-04-08T22:14:30.981Z,100.00
2023-04-08T22:16:58.316Z,100.00
2023-04-08T22:19:25.644Z,100.00
2023-04-08T22:21:52.460Z,100.00
2023-04-08T22:24:20.708Z,100.00
2023-04-08T22:26:47.697Z,100.00
2023-04-08T22:29:14.609Z,100.00
2023-04-08T22:31:41.599Z,100.00
2023-04-08T22:34:08.792Z,100.00
2023-04-08T22:36:36.058Z,100.00
2023-04-08T22:39:04.057Z,100.00
2023-04-08T22:41:31.350Z,100.00
2023-04-08T22:43:58.158Z,100.00
2023-04-08T22:46:25.181Z,100.00
2023-04-08T22:48:52.784Z,100.00
2023-04-08T22:51:20.058Z,100.00
2023-04-08T22:53:47.254Z,100.00
2023-04-08T22:56:14.535Z,100.00
2023-04-08T22:58:41.608Z,100.00
2023-04-08T23:01:26.554Z,100.00
2023-04-08T23:03:53.882Z,100.00
2023-04-08T23:06:21.355Z,100.00
2023-04-08T23:08:48.816Z,100.00
2023-04-08T23:11:15.901Z,100.00
2023-04-08T23:13:43.544Z,100.00
2023-04-08T23:16:10.678Z,100.00
2023-04-08T23:18:37.879Z,100.00
2023-04-08T23:21:05.389Z,100.00
2023-04-08T23:23:32.639Z,100.00
2023-04-08T23:25:59.716Z,100.00
2023-04-08T23:28:27.486Z,100.00
2023-04-08T23:30:54.675Z,100.00
2023-04-08T23:33:22.076Z,100.00
2023-04-08T23:35:49.319Z,100.00
2023-04-08T23:38:16.307Z,100.00
2023-04-08T23:40:43.159Z,100.00
2023-04-08T23:43:10.524Z,100.00
2023-04-08T23:45:37.488Z,100.00
2023-04-08T23:48:08.861Z,100.00
2023-04-08T23:50:36.842Z,100.00
2023-04-08T23:53:03.727Z,100.00
2023-04-08T23:55:30.973Z,100.00
2023-04-08T23:57:58.078Z,100.00
